sensor_id;sensor_type;location;lat;lon;timestamp;temperature;humidity
26821;DHT22;37186;51.394;5.454;2023-11-21T00:01:19;10.20;89.60
26821;DHT22;37186;51.394;5.454;2023-11-21T00:04:20;10.20;89.60
26821;DHT22;37186;51.394;5.454;2023-11-21T00:07:21;10.20;90.20
26821;DHT22;37186;51.394;5.454;2023-11-21T00:10:22;10.20;89.60
26821;DHT22;37186;51.394;5.454;2023-11-21T00:13:22;10.20;89.60
26821;DHT22;37186;51.394;5.454;2023-11-21T00:16:23;10.20;89.60
26821;DHT22;37186;51.394;5.454;2023-11-21T00:19:25;10.30;89.60
26821;DHT22;37186;51.394;5.454;2023-11-21T00:22:26;10.30;89.70
26821;DHT22;37186;51.394;5.454;2023-11-21T00:25:26;10.30;89.70
26821;DHT22;37186;51.394;5.454;2023-11-21T00:28:27;10.30;89.60
26821;DHT22;37186;51.394;5.454;2023-11-21T00:31:28;10.30;89.60
26821;DHT22;37186;51.394;5.454;2023-11-21T00:34:28;10.30;89.60
26821;DHT22;37186;51.394;5.454;2023-11-21T00:37:29;10.30;89.60
26821;DHT22;37186;51.394;5.454;2023-11-21T00:40:29;10.30;89.60
26821;DHT22;37186;51.394;5.454;2023-11-21T00:43:30;10.30;89.60
26821;DHT22;37186;51.394;5.454;2023-11-21T00:46:30;10.30;89.50
26821;DHT22;37186;51.394;5.454;2023-11-21T00:49:31;10.30;89.50
26821;DHT22;37186;51.394;5.454;2023-11-21T00:52:32;10.30;89.50
26821;DHT22;37186;51.394;5.454;2023-11-21T00:55:33;10.30;89.50
26821;DHT22;37186;51.394;5.454;2023-11-21T00:58:35;10.40;89.50
26821;DHT22;37186;51.394;5.454;2023-11-21T01:01:35;10.30;89.40
26821;DHT22;37186;51.394;5.454;2023-11-21T01:04:38;10.30;89.40
26821;DHT22;37186;51.394;5.454;2023-11-21T01:07:38;10.30;89.40
26821;DHT22;37186;51.394;5.454;2023-11-21T01:10:39;10.30;89.40
26821;DHT22;37186;51.394;5.454;2023-11-21T01:13:40;10.30;89.30
26821;DHT22;37186;51.394;5.454;2023-11-21T01:16:41;10.20;89.30
26821;DHT22;37186;51.394;5.454;2023-11-21T01:19:41;10.20;89.30
26821;DHT22;37186;51.394;5.454;2023-11-21T01:22:42;10.20;89.30
26821;DHT22;37186;51.394;5.454;2023-11-21T01:25:43;10.20;89.30
26821;DHT22;37186;51.394;5.454;2023-11-21T01:28:44;10.20;89.30
26821;DHT22;37186;51.394;5.454;2023-11-21T01:31:45;10.20;89.30
26821;DHT22;37186;51.394;5.454;2023-11-21T01:34:45;10.20;89.30
26821;DHT22;37186;51.394;5.454;2023-11-21T01:37:46;10.10;89.20
26821;DHT22;37186;51.394;5.454;2023-11-21T01:40:48;10.10;89.40
26821;DHT22;37186;51.394;5.454;2023-11-21T01:43:49;10.10;89.20
26821;DHT22;37186;51.394;5.454;2023-11-21T01:46:51;10.10;89.20
26821;DHT22;37186;51.394;5.454;2023-11-21T01:49:52;10.00;89.10
26821;DHT22;37186;51.394;5.454;2023-11-21T01:52:53;10.00;89.20
26821;DHT22;37186;51.394;5.454;2023-11-21T01:55:55;9.90;89.10
26821;DHT22;37186;51.394;5.454;2023-11-21T01:58:56;9.90;89.10
26821;DHT22;37186;51.394;5.454;2023-11-21T02:01:57;9.90;89.10
26821;DHT22;37186;51.394;5.454;2023-11-21T02:04:57;9.90;89.30
26821;DHT22;37186;51.394;5.454;2023-11-21T02:07:58;9.90;89.20
26821;DHT22;37186;51.394;5.454;2023-11-21T02:10:59;9.90;89.20
26821;DHT22;37186;51.394;5.454;2023-11-21T02:13:59;9.90;89.30
26821;DHT22;37186;51.394;5.454;2023-11-21T02:17:01;9.90;89.30
26821;DHT22;37186;51.394;5.454;2023-11-21T02:20:02;9.90;89.30
26821;DHT22;37186;51.394;5.454;2023-11-21T02:23:02;9.80;89.30
26821;DHT22;37186;51.394;5.454;2023-11-21T02:26:03;9.80;89.30
26821;DHT22;37186;51.394;5.454;2023-11-21T02:29:04;9.80;90.00
26821;DHT22;37186;51.394;5.454;2023-11-21T02:32:05;9.80;89.30
26821;DHT22;37186;51.394;5.454;2023-11-21T02:35:06;9.80;89.30
26821;DHT22;37186;51.394;5.454;2023-11-21T02:38:08;9.80;89.30
26821;DHT22;37186;51.394;5.454;2023-11-21T02:41:09;9.80;89.40
26821;DHT22;37186;51.394;5.454;2023-11-21T02:44:09;9.80;89.50
26821;DHT22;37186;51.394;5.454;2023-11-21T02:47:10;9.80;89.30
26821;DHT22;37186;51.394;5.454;2023-11-21T02:50:11;9.80;89.40
26821;DHT22;37186;51.394;5.454;2023-11-21T02:53:11;9.80;89.40
26821;DHT22;37186;51.394;5.454;2023-11-21T02:56:13;9.80;89.40
26821;DHT22;37186;51.394;5.454;2023-11-21T02:59:13;9.80;89.40
26821;DHT22;37186;51.394;5.454;2023-11-21T03:02:14;9.80;89.30
26821;DHT22;37186;51.394;5.454;2023-11-21T03:05:15;9.80;89.40
26821;DHT22;37186;51.394;5.454;2023-11-21T03:08:16;9.80;89.40
26821;DHT22;37186;51.394;5.454;2023-11-21T03:11:16;9.80;89.40
26821;DHT22;37186;51.394;5.454;2023-11-21T03:14:17;9.80;89.40
26821;DHT22;37186;51.394;5.454;2023-11-21T03:17:18;9.90;89.50
26821;DHT22;37186;51.394;5.454;2023-11-21T03:20:18;9.80;89.40
26821;DHT22;37186;51.394;5.454;2023-11-21T03:23:19;9.80;89.50
26821;DHT22;37186;51.394;5.454;2023-11-21T03:26:19;9.80;89.40
26821;DHT22;37186;51.394;5.454;2023-11-21T03:29:20;9.80;89.50
26821;DHT22;37186;51.394;5.454;2023-11-21T03:32:20;9.80;89.50
26821;DHT22;37186;51.394;5.454;2023-11-21T03:35:21;9.80;89.50
26821;DHT22;37186;51.394;5.454;2023-11-21T03:38:22;9.80;89.40
26821;DHT22;37186;51.394;5.454;2023-11-21T03:41:22;9.80;89.50
26821;DHT22;37186;51.394;5.454;2023-11-21T03:44:23;9.80;89.40
26821;DHT22;37186;51.394;5.454;2023-11-21T03:47:24;9.80;89.50
26821;DHT22;37186;51.394;5.454;2023-11-21T03:50:25;9.80;89.50
26821;DHT22;37186;51.394;5.454;2023-11-21T03:53:25;9.90;89.50
26821;DHT22;37186;51.394;5.454;2023-11-21T03:56:26;9.80;89.50
26821;DHT22;37186;51.394;5.454;2023-11-21T03:59:26;9.90;89.60
26821;DHT22;37186;51.394;5.454;2023-11-21T04:02:27;9.80;89.50
26821;DHT22;37186;51.394;5.454;2023-11-21T04:05:28;9.80;89.40
26821;DHT22;37186;51.394;5.454;2023-11-21T04:08:29;9.80;89.50
26821;DHT22;37186;51.394;5.454;2023-11-21T04:11:29;9.80;89.40
26821;DHT22;37186;51.394;5.454;2023-11-21T04:14:30;9.80;89.40
26821;DHT22;37186;51.394;5.454;2023-11-21T04:17:31;9.80;89.50
26821;DHT22;37186;51.394;5.454;2023-11-21T04:20:32;9.80;89.40
26821;DHT22;37186;51.394;5.454;2023-11-21T04:23:33;9.80;89.50
26821;DHT22;37186;51.394;5.454;2023-11-21T04:26:33;9.80;89.40
26821;DHT22;37186;51.394;5.454;2023-11-21T04:29:34;9.80;89.40
26821;DHT22;37186;51.394;5.454;2023-11-21T04:32:35;9.80;89.50
26821;DHT22;37186;51.394;5.454;2023-11-21T04:35:35;9.80;89.40
26821;DHT22;37186;51.394;5.454;2023-11-21T04:38:36;9.80;89.40
26821;DHT22;37186;51.394;5.454;2023-11-21T04:41:37;9.80;89.50
26821;DHT22;37186;51.394;5.454;2023-11-21T04:44:39;9.80;89.50
26821;DHT22;37186;51.394;5.454;2023-11-21T04:47:41;9.80;89.50
26821;DHT22;37186;51.394;5.454;2023-11-21T04:50:42;9.80;89.50
26821;DHT22;37186;51.394;5.454;2023-11-21T04:53:42;9.80;89.40
26821;DHT22;37186;51.394;5.454;2023-11-21T04:56:43;9.80;89.50
26821;DHT22;37186;51.394;5.454;2023-11-21T04:59:43;9.70;89.40
26821;DHT22;37186;51.394;5.454;2023-11-21T05:02:44;9.70;89.40
26821;DHT22;37186;51.394;5.454;2023-11-21T05:05:44;9.80;89.50
26821;DHT22;37186;51.394;5.454;2023-11-21T05:08:45;9.70;89.50
26821;DHT22;37186;51.394;5.454;2023-11-21T05:11:46;9.70;89.50
26821;DHT22;37186;51.394;5.454;2023-11-21T05:14:46;9.70;89.50
26821;DHT22;37186;51.394;5.454;2023-11-21T05:17:47;9.70;89.50
26821;DHT22;37186;51.394;5.454;2023-11-21T05:20:52;9.70;89.50
26821;DHT22;37186;51.394;5.454;2023-11-21T05:23:54;9.70;89.50
26821;DHT22;37186;51.394;5.454;2023-11-21T05:26:54;9.70;89.40
26821;DHT22;37186;51.394;5.454;2023-11-21T05:29:55;9.80;89.60
26821;DHT22;37186;51.394;5.454;2023-11-21T05:32:55;9.80;89.60
26821;DHT22;37186;51.394;5.454;2023-11-21T05:35:56;9.80;89.60
26821;DHT22;37186;51.394;5.454;2023-11-21T05:38:56;9.80;89.60
26821;DHT22;37186;51.394;5.454;2023-11-21T05:41:57;9.80;89.60
26821;DHT22;37186;51.394;5.454;2023-11-21T05:44:58;9.80;89.60
26821;DHT22;37186;51.394;5.454;2023-11-21T05:48:11;9.80;89.60
26821;DHT22;37186;51.394;5.454;2023-11-21T05:51:12;9.80;89.60
26821;DHT22;37186;51.394;5.454;2023-11-21T05:54:14;9.80;89.60
26821;DHT22;37186;51.394;5.454;2023-11-21T05:57:14;9.80;89.60
26821;DHT22;37186;51.394;5.454;2023-11-21T06:00:15;9.80;89.60
26821;DHT22;37186;51.394;5.454;2023-11-21T06:03:25;9.80;89.60
26821;DHT22;37186;51.394;5.454;2023-11-21T06:06:26;9.80;89.60
26821;DHT22;37186;51.394;5.454;2023-11-21T06:09:26;9.80;89.60
26821;DHT22;37186;51.394;5.454;2023-11-21T06:12:28;9.80;89.60
26821;DHT22;37186;51.394;5.454;2023-11-21T06:15:28;9.80;89.60
26821;DHT22;37186;51.394;5.454;2023-11-21T06:18:29;9.80;89.60
26821;DHT22;37186;51.394;5.454;2023-11-21T06:21:30;9.80;89.70
26821;DHT22;37186;51.394;5.454;2023-11-21T06:24:30;9.80;89.60
26821;DHT22;37186;51.394;5.454;2023-11-21T06:27:32;9.80;89.60
26821;DHT22;37186;51.394;5.454;2023-11-21T06:30:33;9.80;89.60
26821;DHT22;37186;51.394;5.454;2023-11-21T06:33:34;9.80;89.60
26821;DHT22;37186;51.394;5.454;2023-11-21T06:36:34;9.90;89.70
26821;DHT22;37186;51.394;5.454;2023-11-21T06:39:35;9.90;89.80
26821;DHT22;37186;51.394;5.454;2023-11-21T06:42:36;9.80;89.60
26821;DHT22;37186;51.394;5.454;2023-11-21T06:45:38;9.90;89.80
26821;DHT22;37186;51.394;5.454;2023-11-21T06:48:39;9.90;89.70
26821;DHT22;37186;51.394;5.454;2023-11-21T06:51:39;9.90;89.80
26821;DHT22;37186;51.394;5.454;2023-11-21T06:54:40;9.90;89.80
26821;DHT22;37186;51.394;5.454;2023-11-21T06:57:40;9.90;89.70
26821;DHT22;37186;51.394;5.454;2023-11-21T07:00:41;9.90;89.70
26821;DHT22;37186;51.394;5.454;2023-11-21T07:03:46;9.90;89.70
26821;DHT22;37186;51.394;5.454;2023-11-21T07:06:47;10.00;89.80
26821;DHT22;37186;51.394;5.454;2023-11-21T07:09:47;10.00;89.80
26821;DHT22;37186;51.394;5.454;2023-11-21T07:12:49;9.90;89.70
26821;DHT22;37186;51.394;5.454;2023-11-21T07:15:51;9.90;89.80
26821;DHT22;37186;51.394;5.454;2023-11-21T07:18:52;10.00;89.80
26821;DHT22;37186;51.394;5.454;2023-11-21T07:21:55;10.00;89.80
26821;DHT22;37186;51.394;5.454;2023-11-21T07:24:56;10.00;89.90
26821;DHT22;37186;51.394;5.454;2023-11-21T07:27:59;10.00;89.80
26821;DHT22;37186;51.394;5.454;2023-11-21T07:31:01;10.00;89.80
26821;DHT22;37186;51.394;5.454;2023-11-21T07:34:01;10.00;89.80
26821;DHT22;37186;51.394;5.454;2023-11-21T07:37:03;10.00;89.80
26821;DHT22;37186;51.394;5.454;2023-11-21T07:40:04;10.10;89.80
26821;DHT22;37186;51.394;5.454;2023-11-21T07:43:05;10.10;89.90
26821;DHT22;37186;51.394;5.454;2023-11-21T07:46:06;10.10;89.90
26821;DHT22;37186;51.394;5.454;2023-11-21T07:49:06;10.10;89.90
26821;DHT22;37186;51.394;5.454;2023-11-21T07:52:07;10.10;89.90
26821;DHT22;37186;51.394;5.454;2023-11-21T07:55:07;10.10;89.90
26821;DHT22;37186;51.394;5.454;2023-11-21T07:58:08;10.10;89.90
26821;DHT22;37186;51.394;5.454;2023-11-21T08:01:08;10.10;89.90
26821;DHT22;37186;51.394;5.454;2023-11-21T08:04:09;10.10;89.90
26821;DHT22;37186;51.394;5.454;2023-11-21T08:07:10;10.20;90.00
26821;DHT22;37186;51.394;5.454;2023-11-21T08:10:11;10.20;90.00
26821;DHT22;37186;51.394;5.454;2023-11-21T08:13:11;10.20;90.00
26821;DHT22;37186;51.394;5.454;2023-11-21T08:16:15;10.20;90.00
26821;DHT22;37186;51.394;5.454;2023-11-21T08:19:15;10.20;90.00
26821;DHT22;37186;51.394;5.454;2023-11-21T08:22:17;10.30;90.00
26821;DHT22;37186;51.394;5.454;2023-11-21T08:25:18;10.20;90.00
26821;DHT22;37186;51.394;5.454;2023-11-21T08:28:20;10.30;90.00
26821;DHT22;37186;51.394;5.454;2023-11-21T08:31:26;10.30;90.00
26821;DHT22;37186;51.394;5.454;2023-11-21T08:34:27;10.30;90.00
26821;DHT22;37186;51.394;5.454;2023-11-21T08:37:28;10.30;90.00
26821;DHT22;37186;51.394;5.454;2023-11-21T08:40:30;10.30;90.00
26821;DHT22;37186;51.394;5.454;2023-11-21T08:43:31;10.30;90.00
26821;DHT22;37186;51.394;5.454;2023-11-21T08:46:31;10.30;90.00
26821;DHT22;37186;51.394;5.454;2023-11-21T08:49:32;10.40;90.00
26821;DHT22;37186;51.394;5.454;2023-11-21T08:52:33;10.40;90.00
26821;DHT22;37186;51.394;5.454;2023-11-21T08:55:33;10.40;90.10
26821;DHT22;37186;51.394;5.454;2023-11-21T08:58:37;10.40;90.10
26821;DHT22;37186;51.394;5.454;2023-11-21T09:01:38;10.40;90.10
26821;DHT22;37186;51.394;5.454;2023-11-21T09:04:38;10.50;90.10
26821;DHT22;37186;51.394;5.454;2023-11-21T09:07:41;10.50;90.10
26821;DHT22;37186;51.394;5.454;2023-11-21T09:10:41;10.50;90.10
26821;DHT22;37186;51.394;5.454;2023-11-21T09:13:43;10.50;90.10
26821;DHT22;37186;51.394;5.454;2023-11-21T09:16:44;10.50;90.10
26821;DHT22;37186;51.394;5.454;2023-11-21T09:19:44;10.60;90.10
26821;DHT22;37186;51.394;5.454;2023-11-21T09:22:47;10.60;90.10
26821;DHT22;37186;51.394;5.454;2023-11-21T09:25:48;10.60;90.10
26821;DHT22;37186;51.394;5.454;2023-11-21T09:28:50;10.70;90.10
26821;DHT22;37186;51.394;5.454;2023-11-21T09:31:50;10.70;90.10
26821;DHT22;37186;51.394;5.454;2023-11-21T09:34:55;10.70;90.10
26821;DHT22;37186;51.394;5.454;2023-11-21T09:37:58;10.70;90.10
26821;DHT22;37186;51.394;5.454;2023-11-21T09:41:00;10.80;90.20
26821;DHT22;37186;51.394;5.454;2023-11-21T09:44:02;10.80;90.20
26821;DHT22;37186;51.394;5.454;2023-11-21T09:47:05;10.80;90.20
26821;DHT22;37186;51.394;5.454;2023-11-21T09:50:11;10.80;90.20
26821;DHT22;37186;51.394;5.454;2023-11-21T09:53:20;10.80;90.20
26821;DHT22;37186;51.394;5.454;2023-11-21T09:56:21;10.90;90.20
26821;DHT22;37186;51.394;5.454;2023-11-21T09:59:24;10.80;90.20
26821;DHT22;37186;51.394;5.454;2023-11-21T10:02:27;10.90;90.20
26821;DHT22;37186;51.394;5.454;2023-11-21T10:05:29;10.90;90.20
26821;DHT22;37186;51.394;5.454;2023-11-21T10:08:35;10.90;90.20
26821;DHT22;37186;51.394;5.454;2023-11-21T10:11:42;11.00;90.20
26821;DHT22;37186;51.394;5.454;2023-11-21T10:14:46;10.90;90.20
26821;DHT22;37186;51.394;5.454;2023-11-21T10:17:49;11.00;90.20
26821;DHT22;37186;51.394;5.454;2023-11-21T10:20:50;11.00;90.20
26821;DHT22;37186;51.394;5.454;2023-11-21T10:23:55;11.00;90.20
26821;DHT22;37186;51.394;5.454;2023-11-21T10:26:56;11.00;90.20
26821;DHT22;37186;51.394;5.454;2023-11-21T10:29:56;11.10;90.30
26821;DHT22;37186;51.394;5.454;2023-11-21T10:32:59;11.10;90.30
26821;DHT22;37186;51.394;5.454;2023-11-21T10:36:02;11.10;90.30
26821;DHT22;37186;51.394;5.454;2023-11-21T10:39:03;11.10;90.30
26821;DHT22;37186;51.394;5.454;2023-11-21T10:42:04;11.20;90.40
26821;DHT22;37186;51.394;5.454;2023-11-21T10:45:08;11.20;90.40
26821;DHT22;37186;51.394;5.454;2023-11-21T10:48:15;11.20;90.40
26821;DHT22;37186;51.394;5.454;2023-11-21T10:51:15;11.30;90.40
26821;DHT22;37186;51.394;5.454;2023-11-21T10:54:20;11.30;90.40
26821;DHT22;37186;51.394;5.454;2023-11-21T10:57:21;11.30;90.40
26821;DHT22;37186;51.394;5.454;2023-11-21T11:00:24;11.40;90.50
26821;DHT22;37186;51.394;5.454;2023-11-21T11:03:25;11.40;90.40
26821;DHT22;37186;51.394;5.454;2023-11-21T11:06:26;11.40;90.50
26821;DHT22;37186;51.394;5.454;2023-11-21T11:09:30;11.40;90.40
26821;DHT22;37186;51.394;5.454;2023-11-21T11:12:31;11.50;90.50
26821;DHT22;37186;51.394;5.454;2023-11-21T11:15:31;11.50;90.50
26821;DHT22;37186;51.394;5.454;2023-11-21T11:18:32;11.50;90.50
26821;DHT22;37186;51.394;5.454;2023-11-21T11:28:15;11.60;90.50
26821;DHT22;37186;51.394;5.454;2023-11-21T11:34:54;11.70;90.50
26821;DHT22;37186;51.394;5.454;2023-11-21T11:37:57;11.70;90.50
26821;DHT22;37186;51.394;5.454;2023-11-21T11:41:02;11.70;90.50
26821;DHT22;37186;51.394;5.454;2023-11-21T11:47:47;11.80;90.50
26821;DHT22;37186;51.394;5.454;2023-11-21T11:51:10;11.80;90.50
26821;DHT22;37186;51.394;5.454;2023-11-21T11:54:12;11.80;90.50
26821;DHT22;37186;51.394;5.454;2023-11-21T11:57:13;11.90;90.50
26821;DHT22;37186;51.394;5.454;2023-11-21T12:00:18;11.90;90.50
26821;DHT22;37186;51.394;5.454;2023-11-21T12:03:20;11.90;90.50
26821;DHT22;37186;51.394;5.454;2023-11-21T12:06:34;11.90;90.50
26821;DHT22;37186;51.394;5.454;2023-11-21T12:09:37;11.90;90.50
26821;DHT22;37186;51.394;5.454;2023-11-21T12:12:37;12.00;90.50
26821;DHT22;37186;51.394;5.454;2023-11-21T12:15:39;12.00;90.60
26821;DHT22;37186;51.394;5.454;2023-11-21T12:18:41;12.00;90.50
26821;DHT22;37186;51.394;5.454;2023-11-21T12:21:42;12.00;90.50
26821;DHT22;37186;51.394;5.454;2023-11-21T12:24:44;12.00;90.50
26821;DHT22;37186;51.394;5.454;2023-11-21T12:27:52;12.00;90.50
26821;DHT22;37186;51.394;5.454;2023-11-21T12:30:52;12.00;90.50
26821;DHT22;37186;51.394;5.454;2023-11-21T12:33:53;12.00;90.50
26821;DHT22;37186;51.394;5.454;2023-11-21T12:36:53;12.10;90.50
26821;DHT22;37186;51.394;5.454;2023-11-21T12:39:55;12.10;90.50
26821;DHT22;37186;51.394;5.454;2023-11-21T12:42:59;12.10;90.90
26821;DHT22;37186;51.394;5.454;2023-11-21T12:46:11;12.10;90.50
26821;DHT22;37186;51.394;5.454;2023-11-21T12:49:12;12.10;90.50
26821;DHT22;37186;51.394;5.454;2023-11-21T12:52:17;12.20;90.50
26821;DHT22;37186;51.394;5.454;2023-11-21T12:55:19;12.20;90.50
26821;DHT22;37186;51.394;5.454;2023-11-21T12:58:24;12.10;90.50
26821;DHT22;37186;51.394;5.454;2023-11-21T13:01:26;12.20;90.50
26821;DHT22;37186;51.394;5.454;2023-11-21T13:04:32;12.20;90.50
26821;DHT22;37186;51.394;5.454;2023-11-21T13:07:44;12.20;90.50
26821;DHT22;37186;51.394;5.454;2023-11-21T13:10:54;12.20;90.50
26821;DHT22;37186;51.394;5.454;2023-11-21T13:13:55;12.20;90.50
26821;DHT22;37186;51.394;5.454;2023-11-21T13:16:56;12.20;90.50
26821;DHT22;37186;51.394;5.454;2023-11-21T13:19:57;12.20;90.50
26821;DHT22;37186;51.394;5.454;2023-11-21T13:22:58;12.20;90.50
26821;DHT22;37186;51.394;5.454;2023-11-21T13:26:02;12.20;90.50
26821;DHT22;37186;51.394;5.454;2023-11-21T13:29:05;12.20;90.50
26821;DHT22;37186;51.394;5.454;2023-11-21T13:32:05;12.30;90.60
26821;DHT22;37186;51.394;5.454;2023-11-21T13:35:07;12.30;90.50
26821;DHT22;37186;51.394;5.454;2023-11-21T13:38:15;12.30;90.50
26821;DHT22;37186;51.394;5.454;2023-11-21T13:41:23;12.30;90.50
26821;DHT22;37186;51.394;5.454;2023-11-21T13:44:30;12.30;90.50
26821;DHT22;37186;51.394;5.454;2023-11-21T13:47:38;12.30;90.50
26821;DHT22;37186;51.394;5.454;2023-11-21T13:50:40;12.30;90.80
26821;DHT22;37186;51.394;5.454;2023-11-21T13:53:49;12.30;90.50
26821;DHT22;37186;51.394;5.454;2023-11-21T13:56:53;12.30;90.50
26821;DHT22;37186;51.394;5.454;2023-11-21T13:59:55;12.30;90.60
26821;DHT22;37186;51.394;5.454;2023-11-21T14:02:55;12.20;90.50
26821;DHT22;37186;51.394;5.454;2023-11-21T14:06:00;12.30;90.60
26821;DHT22;37186;51.394;5.454;2023-11-21T14:09:07;12.30;90.60
26821;DHT22;37186;51.394;5.454;2023-11-21T14:12:08;12.30;90.50
26821;DHT22;37186;51.394;5.454;2023-11-21T14:15:10;12.30;90.60
26821;DHT22;37186;51.394;5.454;2023-11-21T14:18:12;12.30;90.50
26821;DHT22;37186;51.394;5.454;2023-11-21T14:21:18;12.30;90.50
26821;DHT22;37186;51.394;5.454;2023-11-21T14:24:18;12.30;90.60
26821;DHT22;37186;51.394;5.454;2023-11-21T14:27:19;12.30;90.60
26821;DHT22;37186;51.394;5.454;2023-11-21T14:30:20;12.30;90.60
26821;DHT22;37186;51.394;5.454;2023-11-21T14:33:22;12.30;90.60
26821;DHT22;37186;51.394;5.454;2023-11-21T14:36:23;12.30;90.60
26821;DHT22;37186;51.394;5.454;2023-11-21T14:39:24;12.30;90.80
26821;DHT22;37186;51.394;5.454;2023-11-21T14:42:27;12.30;90.60
26821;DHT22;37186;51.394;5.454;2023-11-21T14:45:30;12.30;90.50
26821;DHT22;37186;51.394;5.454;2023-11-21T14:48:30;12.30;90.60
26821;DHT22;37186;51.394;5.454;2023-11-21T14:51:42;12.30;90.50
26821;DHT22;37186;51.394;5.454;2023-11-21T14:55:01;12.30;90.60
26821;DHT22;37186;51.394;5.454;2023-11-21T14:58:20;12.30;90.60
26821;DHT22;37186;51.394;5.454;2023-11-21T15:01:26;12.30;90.60
26821;DHT22;37186;51.394;5.454;2023-11-21T15:04:43;12.30;90.50
26821;DHT22;37186;51.394;5.454;2023-11-21T15:07:43;12.30;90.60
26821;DHT22;37186;51.394;5.454;2023-11-21T15:10:45;12.30;90.60
26821;DHT22;37186;51.394;5.454;2023-11-21T15:13:53;12.40;90.60
26821;DHT22;37186;51.394;5.454;2023-11-21T15:16:54;12.30;90.60
26821;DHT22;37186;51.394;5.454;2023-11-21T15:20:00;12.30;90.60
26821;DHT22;37186;51.394;5.454;2023-11-21T15:23:00;12.30;90.60
26821;DHT22;37186;51.394;5.454;2023-11-21T15:26:01;12.40;90.60
26821;DHT22;37186;51.394;5.454;2023-11-21T15:29:04;12.40;90.60
26821;DHT22;37186;51.394;5.454;2023-11-21T15:32:06;12.40;90.60
26821;DHT22;37186;51.394;5.454;2023-11-21T15:35:07;12.30;90.60
26821;DHT22;37186;51.394;5.454;2023-11-21T15:38:12;12.30;90.60
26821;DHT22;37186;51.394;5.454;2023-11-21T15:41:14;12.40;90.60
26821;DHT22;37186;51.394;5.454;2023-11-21T15:44:14;12.30;90.60
26821;DHT22;37186;51.394;5.454;2023-11-21T15:47:15;12.40;90.60
26821;DHT22;37186;51.394;5.454;2023-11-21T15:50:15;12.30;90.60
26821;DHT22;37186;51.394;5.454;2023-11-21T15:53:16;12.30;90.60
26821;DHT22;37186;51.394;5.454;2023-11-21T15:56:16;12.30;90.60
26821;DHT22;37186;51.394;5.454;2023-11-21T15:59:18;12.30;90.50
26821;DHT22;37186;51.394;5.454;2023-11-21T16:02:19;12.30;90.50
26821;DHT22;37186;51.394;5.454;2023-11-21T16:05:19;12.30;90.50
26821;DHT22;37186;51.394;5.454;2023-11-21T16:08:20;12.30;90.50
26821;DHT22;37186;51.394;5.454;2023-11-21T16:11:21;12.30;90.60
26821;DHT22;37186;51.394;5.454;2023-11-21T16:14:21;12.30;90.60
26821;DHT22;37186;51.394;5.454;2023-11-21T16:17:25;12.30;90.60
26821;DHT22;37186;51.394;5.454;2023-11-21T16:20:26;12.30;90.60
26821;DHT22;37186;51.394;5.454;2023-11-21T16:23:27;12.30;90.60
26821;DHT22;37186;51.394;5.454;2023-11-21T16:26:28;12.20;90.50
26821;DHT22;37186;51.394;5.454;2023-11-21T16:29:28;12.20;90.50
26821;DHT22;37186;51.394;5.454;2023-11-21T16:32:31;12.30;90.60
26821;DHT22;37186;51.394;5.454;2023-11-21T16:35:32;12.20;90.60
26821;DHT22;37186;51.394;5.454;2023-11-21T16:38:33;12.20;90.60
26821;DHT22;37186;51.394;5.454;2023-11-21T16:41:33;12.20;90.60
26821;DHT22;37186;51.394;5.454;2023-11-21T16:44:34;12.20;90.60
26821;DHT22;37186;51.394;5.454;2023-11-21T16:47:37;12.20;90.60
26821;DHT22;37186;51.394;5.454;2023-11-21T16:50:43;12.20;90.60
26821;DHT22;37186;51.394;5.454;2023-11-21T16:53:44;12.20;90.60
26821;DHT22;37186;51.394;5.454;2023-11-21T16:56:45;12.20;90.60
26821;DHT22;37186;51.394;5.454;2023-11-21T16:59:45;12.20;90.60
26821;DHT22;37186;51.394;5.454;2023-11-21T17:02:50;12.20;90.60
26821;DHT22;37186;51.394;5.454;2023-11-21T17:05:51;12.20;90.60
26821;DHT22;37186;51.394;5.454;2023-11-21T17:08:54;12.20;90.60
26821;DHT22;37186;51.394;5.454;2023-11-21T17:12:04;12.10;90.60
26821;DHT22;37186;51.394;5.454;2023-11-21T17:15:06;12.10;90.60
26821;DHT22;37186;51.394;5.454;2023-11-21T17:18:08;12.10;90.40
26821;DHT22;37186;51.394;5.454;2023-11-21T17:21:09;12.10;90.90
26821;DHT22;37186;51.394;5.454;2023-11-21T17:24:11;12.00;90.50
26821;DHT22;37186;51.394;5.454;2023-11-21T17:27:12;12.10;90.50
26821;DHT22;37186;51.394;5.454;2023-11-21T17:30:13;12.00;90.50
26821;DHT22;37186;51.394;5.454;2023-11-21T17:33:13;12.00;90.50
26821;DHT22;37186;51.394;5.454;2023-11-21T17:36:18;12.00;90.50
26821;DHT22;37186;51.394;5.454;2023-11-21T17:39:19;12.00;90.50
26821;DHT22;37186;51.394;5.454;2023-11-21T17:42:19;11.90;90.50
26821;DHT22;37186;51.394;5.454;2023-11-21T17:45:20;11.90;90.50
26821;DHT22;37186;51.394;5.454;2023-11-21T17:48:20;11.90;90.50
26821;DHT22;37186;51.394;5.454;2023-11-21T17:51:21;11.90;90.50
26821;DHT22;37186;51.394;5.454;2023-11-21T17:54:22;11.80;90.50
26821;DHT22;37186;51.394;5.454;2023-11-21T17:57:23;11.80;90.50
26821;DHT22;37186;51.394;5.454;2023-11-21T18:00:24;11.80;90.50
26821;DHT22;37186;51.394;5.454;2023-11-21T18:03:26;11.70;90.50
26821;DHT22;37186;51.394;5.454;2023-11-21T18:06:27;11.70;90.50
26821;DHT22;37186;51.394;5.454;2023-11-21T18:09:28;11.70;90.40
26821;DHT22;37186;51.394;5.454;2023-11-21T18:12:29;11.70;90.40
26821;DHT22;37186;51.394;5.454;2023-11-21T18:15:29;11.60;90.40
26821;DHT22;37186;51.394;5.454;2023-11-21T18:18:30;11.60;90.40
26821;DHT22;37186;51.394;5.454;2023-11-21T18:21:30;11.60;90.40
26821;DHT22;37186;51.394;5.454;2023-11-21T18:24:31;11.60;90.40
26821;DHT22;37186;51.394;5.454;2023-11-21T18:27:32;11.50;90.40
26821;DHT22;37186;51.394;5.454;2023-11-21T18:30:33;11.50;90.40
26821;DHT22;37186;51.394;5.454;2023-11-21T18:33:33;11.40;90.30
26821;DHT22;37186;51.394;5.454;2023-11-21T18:36:34;11.40;90.40
26821;DHT22;37186;51.394;5.454;2023-11-21T18:39:35;11.40;90.40
26821;DHT22;37186;51.394;5.454;2023-11-21T18:42:35;11.40;90.40
26821;DHT22;37186;51.394;5.454;2023-11-21T18:45:36;11.30;90.40
26821;DHT22;37186;51.394;5.454;2023-11-21T18:48:36;11.30;90.40
26821;DHT22;37186;51.394;5.454;2023-11-21T18:51:37;11.30;90.40
26821;DHT22;37186;51.394;5.454;2023-11-21T18:54:37;11.30;90.50
26821;DHT22;37186;51.394;5.454;2023-11-21T18:57:38;11.30;90.40
26821;DHT22;37186;51.394;5.454;2023-11-21T19:00:40;11.20;90.40
26821;DHT22;37186;51.394;5.454;2023-11-21T19:03:44;11.20;90.40
26821;DHT22;37186;51.394;5.454;2023-11-21T19:06:44;11.20;90.40
26821;DHT22;37186;51.394;5.454;2023-11-21T19:09:47;11.20;90.40
26821;DHT22;37186;51.394;5.454;2023-11-21T19:12:47;11.20;90.40
26821;DHT22;37186;51.394;5.454;2023-11-21T19:15:48;11.10;90.40
26821;DHT22;37186;51.394;5.454;2023-11-21T19:18:49;11.10;90.30
26821;DHT22;37186;51.394;5.454;2023-11-21T19:21:49;11.10;90.30
26821;DHT22;37186;51.394;5.454;2023-11-21T19:24:50;11.00;90.30
26821;DHT22;37186;51.394;5.454;2023-11-21T19:27:50;11.00;90.30